createdAt,value
2023-03-05T00:01:10.005Z,98045.53
2023-03-05T00:03:36.763Z,98044.59
2023-03-05T00:06:03.553Z,98032.06
2023-03-05T00:08:30.678Z,98034.00
2023-03-05T00:10:57.840Z,98016.69
2023-03-05T00:13:24.509Z,98021.03
2023-03-05T00:15:51.306Z,98015.59
2023-03-05T00:18:17.878Z,98023.63
2023-03-05T00:20:44.535Z,98026.97
2023-03-05T00:23:11.127Z,98029.47
2023-03-05T00:25:37.885Z,98033.84
2023-03-05T00:28:04.657Z,98025.41
2023-03-05T00:30:31.822Z,98025.03
2023-03-05T00:32:58.544Z,98014.28
2023-03-05T00:35:25.237Z,98005.47
2023-03-05T00:37:51.820Z,98005.34
2023-03-05T00:40:18.936Z,97991.78
2023-03-05T00:42:45.602Z,97987.47
2023-03-05T00:45:12.376Z,97982.00
2023-03-05T00:47:38.988Z,97967.00
2023-03-05T00:50:06.540Z,97968.25
2023-03-05T00:52:33.263Z,97958.72
2023-03-05T00:54:59.901Z,97950.25
2023-03-05T00:57:26.906Z,97948.69
2023-03-05T00:59:53.550Z,97952.47
2023-03-05T01:02:20.600Z,97936.00
2023-03-05T01:04:47.500Z,97926.19
2023-03-05T01:07:15.126Z,97925.97
2023-03-05T01:09:41.746Z,97920.97
2023-03-05T01:12:08.504Z,97919.09
2023-03-05T01:14:35.954Z,97909.03
2023-03-05T01:17:02.753Z,97911.69
2023-03-05T01:19:29.389Z,97908.44
2023-03-05T01:21:55.989Z,97914.94
2023-03-05T01:24:22.664Z,97901.91
2023-03-05T01:26:49.842Z,97908.25
2023-03-05T01:29:16.464Z,97892.50
2023-03-05T01:31:45.950Z,97891.56
2023-03-05T01:34:13.728Z,97888.34
2023-03-05T01:36:43.837Z,97877.38
2023-03-05T01:39:10.517Z,97882.88
2023-03-05T01:41:37.161Z,97884.59
2023-03-05T01:44:04.814Z,97877.53
2023-03-05T01:46:40.462Z,97877.75
2023-03-05T01:49:28.569Z,97877.31
2023-03-05T01:52:07.945Z,97873.94
2023-03-05T01:54:43.506Z,97861.41
2023-03-05T01:57:15.053Z,97860.22
2023-03-05T01:59:42.052Z,97852.13
2023-03-05T02:02:08.677Z,97850.34
2023-03-05T02:04:48.380Z,97841.91
2023-03-05T02:07:15.039Z,97828.94
2023-03-05T02:09:41.930Z,97823.22
2023-03-05T02:12:09.335Z,97818.69
2023-03-05T02:14:36.875Z,97816.00
2023-03-05T02:17:04.523Z,97808.31
2023-03-05T02:19:49.474Z,97810.81
2023-03-05T02:22:17.532Z,97795.53
2023-03-05T02:24:44.153Z,97786.53
2023-03-05T02:27:10.754Z,97780.09
2023-03-05T02:29:37.833Z,97777.25
2023-03-05T02:32:04.668Z,97780.22
2023-03-05T02:38:22.383Z,97765.44
2023-03-05T02:40:52.211Z,97762.84
2023-03-05T02:43:18.909Z,97761.47
2023-03-05T02:45:45.777Z,97755.47
2023-03-05T02:48:12.383Z,97753.09
2023-03-05T02:50:39.843Z,97758.50
2023-03-05T02:53:06.820Z,97757.94
2023-03-05T02:55:33.509Z,97760.59
2023-03-05T02:58:00.453Z,97754.81
2023-03-05T03:00:27.882Z,97764.56
2023-03-05T03:02:55.232Z,97766.06
2023-03-05T03:05:22.025Z,97768.31
2023-03-05T03:07:51.703Z,97763.78
2023-03-05T03:10:18.382Z,97763.72
2023-03-05T03:12:45.064Z,97761.47
2023-03-05T03:15:12.810Z,97766.19
2023-03-05T03:17:39.555Z,97770.25
2023-03-05T03:20:07.741Z,97773.59
2023-03-05T03:22:34.347Z,97766.25
2023-03-05T03:25:01.337Z,97770.56
2023-03-05T03:27:27.944Z,97760.13
2023-03-05T03:29:54.605Z,97754.13
2023-03-05T03:32:21.351Z,97746.13
2023-03-05T03:34:48.321Z,97750.66
2023-03-05T03:37:15.174Z,97756.72
2023-03-05T03:39:41.817Z,97760.16
2023-03-05T03:42:08.482Z,97762.94
2023-03-05T03:44:35.116Z,97754.09
2023-03-05T03:47:01.703Z,97752.34
2023-03-05T03:49:28.354Z,97762.94
2023-03-05T03:51:55.597Z,97758.00
2023-03-05T03:54:22.343Z,97759.25
2023-03-05T03:56:49.039Z,97754.94
2023-03-05T03:59:15.690Z,97743.44
2023-03-05T04:01:42.685Z,97732.34
2023-03-05T04:04:10.659Z,97724.28
2023-03-05T04:06:37.353Z,97721.59
2023-03-05T04:09:04.555Z,97711.56
2023-03-05T04:11:31.351Z,97709.19
2023-03-05T04:13:57.968Z,97720.13
2023-03-05T04:16:24.677Z,97715.59
2023-03-05T04:18:51.427Z,97714.22
2023-03-05T04:21:18.105Z,97702.88
2023-03-05T04:23:44.938Z,97715.66
2023-03-05T04:26:11.554Z,97705.03
2023-03-05T04:28:38.254Z,97710.69
2023-03-05T04:31:05.207Z,97706.78
2023-03-05T04:33:34.559Z,97695.38
2023-03-05T04:36:01.337Z,97701.44
2023-03-05T04:38:27.938Z,97697.63
2023-03-05T04:40:54.693Z,97699.41
2023-03-05T04:43:21.380Z,97698.47
2023-03-05T04:45:48.059Z,97695.28
2023-03-05T04:48:14.733Z,97695.41
2023-03-05T04:50:41.326Z,97691.50
2023-03-05T04:53:08.176Z,97699.09
2023-03-05T04:55:34.858Z,97689.44
2023-03-05T04:58:01.495Z,97683.19
2023-03-05T05:00:28.108Z,97686.47
2023-03-05T05:02:54.806Z,97679.50
2023-03-05T05:05:24.047Z,97684.47
2023-03-05T05:07:56.557Z,97680.16
2023-03-05T05:10:23.825Z,97685.53
2023-03-05T05:12:52.832Z,97671.13
2023-03-05T05:15:19.857Z,97679.38
2023-03-05T05:17:46.581Z,97677.66
2023-03-05T05:20:14.288Z,97672.34
2023-03-05T05:22:40.976Z,97670.28
2023-03-05T05:25:07.986Z,97662.31
2023-03-05T05:27:34.668Z,97668.25
2023-03-05T05:30:01.319Z,97661.59
2023-03-05T05:32:28.097Z,97668.72
2023-03-05T05:34:55.695Z,97672.28
2023-03-05T05:37:22.573Z,97679.69
2023-03-05T05:39:50.436Z,97674.34
2023-03-05T05:42:21.394Z,97670.88
2023-03-05T05:44:48.149Z,97669.63
2023-03-05T05:47:15.814Z,97661.75
2023-03-05T05:49:42.466Z,97669.81
2023-03-05T05:52:09.141Z,97666.47
2023-03-05T05:54:35.721Z,97669.38
2023-03-05T05:57:02.445Z,97678.66
2023-03-05T05:59:29.138Z,97676.16
2023-03-05T06:01:57.914Z,97692.41
2023-03-05T06:04:24.562Z,97694.81
2023-03-05T06:06:51.293Z,97692.06
2023-03-05T06:09:17.954Z,97707.41
2023-03-05T06:11:44.578Z,97710.28
2023-03-05T06:14:11.960Z,97710.00
2023-03-05T06:16:38.728Z,97706.44
2023-03-05T06:19:05.714Z,97721.81
2023-03-05T06:21:35.156Z,97719.03
2023-03-05T06:24:01.794Z,97724.59
2023-03-05T06:26:28.436Z,97721.03
2023-03-05T06:28:55.320Z,97730.72
2023-03-05T06:31:23.448Z,97728.84
2023-03-05T06:33:50.267Z,97731.44
2023-03-05T06:36:18.466Z,97740.13
2023-03-05T06:38:47.377Z,97739.03
2023-03-05T06:41:18.954Z,97742.41
2023-03-05T06:43:46.091Z,97748.25
2023-03-05T06:46:23.469Z,97758.00
2023-03-05T06:48:50.787Z,97752.94
2023-03-05T06:51:27.341Z,97771.91
2023-03-05T06:53:54.864Z,97771.25
2023-03-05T06:56:21.538Z,97770.72
2023-03-05T06:58:50.608Z,97764.16
2023-03-05T07:01:17.602Z,97757.38
2023-03-05T07:03:44.463Z,97758.91
2023-03-05T07:06:15.933Z,97758.91
2023-03-05T07:08:42.690Z,97750.19
2023-03-05T07:11:10.927Z,97753.06
2023-03-05T07:13:37.580Z,97746.94
2023-03-05T07:16:08.152Z,97742.16
2023-03-05T07:18:34.864Z,97744.19
2023-03-05T07:21:08.063Z,97743.72
2023-03-05T07:23:35.371Z,97729.91
2023-03-05T07:26:03.442Z,97718.19
2023-03-05T07:28:30.069Z,97714.53
2023-03-05T07:31:06.937Z,97712.72
2023-03-05T07:33:34.961Z,97703.19
2023-03-05T07:36:01.799Z,97711.94
2023-03-05T07:38:28.458Z,97708.50
2023-03-05T07:40:55.063Z,97700.75
2023-03-05T07:43:21.711Z,97699.28
2023-03-05T07:45:49.542Z,97687.59
2023-03-05T07:48:17.676Z,97679.41
2023-03-05T07:50:44.374Z,97671.91
2023-03-05T07:53:11.048Z,97661.53
2023-03-05T07:55:44.737Z,97642.22
2023-03-05T07:58:11.704Z,97634.91
2023-03-05T08:00:38.395Z,97619.00
2023-03-05T08:03:05.019Z,97608.97
2023-03-05T08:05:31.732Z,97601.88
2023-03-05T08:07:58.653Z,97580.69
2023-03-05T08:10:25.503Z,97568.88
2023-03-05T08:12:52.331Z,97558.00
2023-03-05T08:15:19.116Z,97544.91
2023-03-05T08:17:45.823Z,97527.41
2023-03-05T08:20:12.863Z,97509.13
2023-03-05T08:22:39.518Z,97492.00
2023-03-05T08:25:06.925Z,97466.00
2023-03-05T08:27:33.626Z,97457.47
2023-03-05T08:30:02.003Z,97450.53
2023-03-05T08:32:28.691Z,97429.75
2023-03-05T08:34:58.644Z,97408.25
2023-03-05T08:37:25.671Z,97397.72
2023-03-05T08:39:52.602Z,97385.16
2023-03-05T08:42:19.208Z,97371.50
2023-03-05T08:44:45.927Z,97348.31
2023-03-05T08:47:12.693Z,97350.66
2023-03-05T08:49:39.404Z,97330.84
2023-03-05T08:52:06.017Z,97328.72
2023-03-05T08:54:33.772Z,97318.97
2023-03-05T08:57:00.377Z,97304.09
2023-03-05T08:59:27.004Z,97303.81
2023-03-05T09:01:53.790Z,97290.47
2023-03-05T09:04:20.473Z,97291.72
2023-03-05T09:06:47.062Z,97298.06
2023-03-05T09:09:14.191Z,97291.72
2023-03-05T09:11:40.906Z,97284.13
2023-03-05T09:14:07.576Z,97287.16
2023-03-05T09:16:34.203Z,97275.72
2023-03-05T09:19:00.998Z,97277.69
2023-03-05T09:21:27.580Z,97271.59
2023-03-05T09:23:59.587Z,97271.75
2023-03-05T09:26:26.311Z,97271.03
2023-03-05T09:28:53.008Z,97262.34
2023-03-05T09:31:19.821Z,97269.44
2023-03-05T09:33:47.962Z,97263.72
2023-03-05T09:36:22.347Z,97261.28
2023-03-05T09:38:49.120Z,97251.97
2023-03-05T09:41:30.231Z,97262.56
2023-03-05T09:44:08.923Z,97248.28
2023-03-05T09:46:47.790Z,97261.59
2023-03-05T09:49:18.736Z,97255.66
2023-03-05T09:51:50.507Z,97252.69
2023-03-05T09:54:25.013Z,97249.28
2023-03-05T09:56:57.448Z,97244.88
2023-03-05T09:59:36.096Z,97245.28
2023-03-05T10:02:05.365Z,97248.66
2023-03-05T10:04:42.356Z,97250.41
2023-03-05T10:07:14.106Z,97251.34
2023-03-05T10:09:59.359Z,97246.81
2023-03-05T10:12:42.948Z,97250.56
2023-03-05T10:15:23.985Z,97252.88
2023-03-05T10:18:19.305Z,97250.38
2023-03-05T10:20:51.542Z,97255.28
2023-03-05T10:23:33.741Z,97258.84
2023-03-05T10:26:45.814Z,97259.44
2023-03-05T10:29:38.917Z,97258.28
2023-03-05T10:32:17.618Z,97258.84
2023-03-05T10:34:47.839Z,97264.34
2023-03-05T10:37:20.416Z,97262.22
2023-03-05T10:40:01.737Z,97265.50
2023-03-05T10:42:31.467Z,97254.50
2023-03-05T10:44:59.745Z,97264.03
2023-03-05T10:48:05.283Z,97260.84
2023-03-05T10:50:37.025Z,97262.22
2023-03-05T10:53:10.043Z,97254.97
2023-03-05T10:55:36.826Z,97248.94
2023-03-05T10:58:13.606Z,97253.06
2023-03-05T11:00:40.412Z,97264.38
2023-03-05T11:03:10.289Z,97270.44
2023-03-05T11:06:13.497Z,97270.63
2023-03-05T11:08:40.185Z,97268.03
2023-03-05T11:11:16.695Z,97253.03
2023-03-05T11:13:59.765Z,97255.78
2023-03-05T11:16:26.615Z,97257.16
2023-03-05T11:19:14.056Z,97246.00
2023-03-05T11:21:41.405Z,97230.94
2023-03-05T11:24:15.673Z,97217.25
2023-03-05T11:26:50.368Z,97207.13
2023-03-05T11:29:25.163Z,97192.63
2023-03-05T11:31:52.263Z,97178.44
2023-03-05T11:34:18.702Z,97173.50
2023-03-05T11:36:53.177Z,97156.53
2023-03-05T11:39:22.472Z,97144.91
2023-03-05T11:41:59.761Z,97143.09
2023-03-05T11:44:33.430Z,97134.88
2023-03-05T11:47:07.436Z,97133.28
2023-03-05T11:49:35.322Z,97131.53
2023-03-05T11:52:12.923Z,97116.06
2023-03-05T11:55:02.959Z,97117.13
2023-03-05T11:57:33.478Z,97110.16
2023-03-05T12:00:00.503Z,97110.16
2023-03-05T12:02:27.466Z,97099.97
2023-03-05T12:04:56.868Z,97096.31
2023-03-05T12:07:43.265Z,97098.47
2023-03-05T12:10:21.345Z,97096.84
2023-03-05T12:13:03.291Z,97086.59
2023-03-05T12:15:43.518Z,97065.91
2023-03-05T12:18:10.145Z,97065.38
2023-03-05T12:20:50.016Z,97061.63
2023-03-05T12:23:18.913Z,97051.84
2023-03-05T12:25:46.957Z,97050.34
2023-03-05T12:28:15.359Z,97050.22
2023-03-05T12:30:42.350Z,97033.41
2023-03-05T12:33:36.512Z,97032.28
2023-03-05T12:36:36.378Z,97018.38
2023-03-05T12:39:24.582Z,97013.91
2023-03-05T12:41:51.279Z,97015.69
2023-03-05T12:44:19.031Z,97011.84
2023-03-05T12:46:49.189Z,97006.94
2023-03-05T12:49:23.111Z,96997.69
2023-03-05T12:51:51.057Z,97007.75
2023-03-05T12:54:33.664Z,97007.13
2023-03-05T12:57:12.761Z,97013.97
2023-03-05T12:59:45.061Z,96997.69
2023-03-05T13:02:40.437Z,96992.56
2023-03-05T13:05:24.256Z,96997.50
2023-03-05T13:07:51.360Z,96993.66
2023-03-05T13:10:28.160Z,96987.28
2023-03-05T13:12:58.729Z,96986.09
2023-03-05T13:15:26.156Z,96985.13
2023-03-05T13:17:57.000Z,96989.00
2023-03-05T13:20:40.661Z,96989.97
2023-03-05T13:23:23.228Z,96984.78
2023-03-05T13:26:18.889Z,96993.41
2023-03-05T13:29:12.743Z,96994.06
2023-03-05T13:31:57.236Z,96991.97
2023-03-05T13:34:44.501Z,96997.28
2023-03-05T13:37:19.334Z,97008.91
2023-03-05T13:39:59.049Z,97014.09
2023-03-05T13:42:32.798Z,97013.97
2023-03-05T13:45:01.064Z,97007.53
2023-03-05T13:47:32.606Z,97016.72
2023-03-05T13:50:05.826Z,97014.66
2023-03-05T13:52:34.585Z,97018.22
2023-03-05T13:55:01.576Z,97020.13
2023-03-05T13:57:50.342Z,97016.84
2023-03-05T14:00:36.866Z,97014.78
2023-03-05T14:03:11.784Z,97028.84
2023-03-05T14:05:43.524Z,97037.03
2023-03-05T14:08:20.620Z,97030.91
2023-03-05T14:10:47.281Z,97031.56
2023-03-05T14:13:17.947Z,97032.38
2023-03-05T14:15:46.653Z,97035.81
2023-03-05T14:18:13.254Z,97032.16
2023-03-05T14:20:40.566Z,97028.34
2023-03-05T14:23:28.988Z,97033.66
2023-03-05T14:26:22.374Z,97034.91
2023-03-05T14:29:02.567Z,97035.16
2023-03-05T14:31:30.786Z,97044.16
2023-03-05T14:34:02.132Z,97053.72
2023-03-05T14:36:29.692Z,97064.63
2023-03-05T14:38:56.973Z,97058.91
2023-03-05T14:41:40.588Z,97079.00
2023-03-05T14:44:17.462Z,97087.81
2023-03-05T14:46:48.000Z,97100.69
2023-03-05T14:49:14.613Z,97105.22
2023-03-05T14:51:42.637Z,97111.38
2023-03-05T14:54:22.826Z,97117.66
2023-03-05T14:56:49.767Z,97114.09
2023-03-05T14:59:21.279Z,97114.66
2023-03-05T15:01:50.034Z,97113.84
2023-03-05T15:04:19.144Z,97102.78
2023-03-05T15:06:50.990Z,97097.72
2023-03-05T15:09:19.712Z,97091.72
2023-03-05T15:11:46.648Z,97092.00
2023-03-05T15:14:13.402Z,97088.31
2023-03-05T15:16:41.066Z,97083.50
2023-03-05T15:19:11.348Z,97081.88
2023-03-05T15:21:38.216Z,97079.97
2023-03-05T15:24:04.926Z,97080.78
2023-03-05T15:26:31.602Z,97082.72
2023-03-05T15:31:31.222Z,97088.16
2023-03-05T15:33:57.805Z,97074.78
2023-03-05T15:36:24.471Z,97079.72
2023-03-05T15:38:51.202Z,97069.03
2023-03-05T15:41:18.075Z,97064.25
2023-03-05T15:43:44.811Z,97074.25
2023-03-05T15:46:11.632Z,97064.94
2023-03-05T15:48:38.393Z,97074.09
2023-03-05T15:51:07.890Z,97072.75
2023-03-05T15:53:34.581Z,97068.22
2023-03-05T15:56:01.427Z,97061.94
2023-03-05T15:58:28.334Z,97060.84
2023-03-05T16:00:55.019Z,97059.63
2023-03-05T16:03:23.123Z,97058.25
2023-03-05T16:05:49.785Z,97054.28
2023-03-05T16:08:16.512Z,97052.38
2023-03-05T16:10:43.196Z,97054.16
2023-03-05T16:13:12.215Z,97045.69
2023-03-05T16:15:38.891Z,97050.47
2023-03-05T16:18:06.932Z,97048.56
2023-03-05T16:20:36.224Z,97045.25
2023-03-05T16:23:04.379Z,97049.94
2023-03-05T16:25:31.088Z,97037.88
2023-03-05T16:27:57.774Z,97044.19
2023-03-05T16:30:24.392Z,97025.47
2023-03-05T16:32:53.532Z,97024.78
2023-03-05T16:35:20.418Z,97021.91
2023-03-05T16:37:47.556Z,97013.84
2023-03-05T16:40:14.488Z,97008.91
2023-03-05T16:42:41.958Z,97012.19
2023-03-05T16:45:09.670Z,97009.72
2023-03-05T16:47:36.381Z,97011.91
2023-03-05T16:50:06.836Z,97008.47
2023-03-05T16:52:33.490Z,97003.97
2023-03-05T16:55:00.417Z,96989.75
2023-03-05T16:57:28.974Z,96986.91
2023-03-05T16:59:56.189Z,96982.97
2023-03-05T17:02:22.838Z,96982.13
2023-03-05T17:04:50.444Z,96981.88
2023-03-05T17:07:18.009Z,96980.22
2023-03-05T17:09:44.839Z,96981.59
2023-03-05T17:12:11.537Z,96976.66
2023-03-05T17:14:38.233Z,96971.91
2023-03-05T17:17:05.153Z,96976.69
2023-03-05T17:19:32.160Z,96968.25
2023-03-05T17:21:58.823Z,96972.88
2023-03-05T17:24:25.571Z,96970.13
2023-03-05T17:26:52.187Z,96966.59
2023-03-05T17:29:23.188Z,96973.72
2023-03-05T17:31:53.174Z,96968.25
2023-03-05T17:34:33.359Z,96971.75
2023-03-05T17:37:02.014Z,96972.19
2023-03-05T17:39:28.780Z,96974.50
2023-03-05T17:41:55.366Z,96969.88
2023-03-05T17:44:22.010Z,96974.50
2023-03-05T17:46:48.681Z,96978.06
2023-03-05T17:49:15.304Z,96970.69
2023-03-05T17:51:41.989Z,96978.47
2023-03-05T17:54:08.619Z,96967.41
2023-03-05T17:56:35.309Z,96971.25
2023-03-05T17:59:02.008Z,96964.13
2023-03-05T18:05:34.744Z,96954.16
2023-03-05T18:08:03.441Z,96957.72
2023-03-05T18:10:31.870Z,96962.22
2023-03-05T18:12:58.661Z,96951.84
2023-03-05T18:15:25.983Z,96947.22
2023-03-05T18:17:52.663Z,96953.75
2023-03-05T18:20:31.346Z,96964.41
2023-03-05T18:22:58.482Z,96971.75
2023-03-05T18:25:25.865Z,96975.34
2023-03-05T18:27:53.391Z,96974.22
2023-03-05T18:30:20.137Z,96983.78
2023-03-05T18:32:47.533Z,96976.69
2023-03-05T18:35:14.480Z,96978.63
2023-03-05T18:37:41.109Z,96976.44
2023-03-05T18:40:09.755Z,96975.22
2023-03-05T18:42:37.158Z,96979.72
2023-03-05T18:45:05.527Z,96979.31
2023-03-05T18:47:33.332Z,96988.16
2023-03-05T18:50:00.511Z,96994.72
2023-03-05T18:52:27.684Z,96997.59
2023-03-05T18:54:54.273Z,97002.09
2023-03-05T18:57:20.874Z,97013.03
2023-03-05T18:59:47.516Z,97011.81
2023-03-05T19:02:14.824Z,97005.78
2023-03-05T19:04:42.066Z,97005.38
2023-03-05T19:07:09.257Z,97002.94
2023-03-05T19:10:07.496Z,97009.75
2023-03-05T19:12:37.360Z,97010.56
2023-03-05T19:15:04.638Z,97013.31
2023-03-05T19:17:31.570Z,97007.84
2023-03-05T19:19:59.691Z,97015.78
2023-03-05T19:22:26.897Z,97024.22
2023-03-05T19:24:53.994Z,97028.03
2023-03-05T19:27:20.609Z,97024.47
2023-03-05T19:29:47.297Z,97032.84
2023-03-05T19:32:15.976Z,97035.00
2023-03-05T19:34:42.692Z,97035.97
2023-03-05T19:37:09.326Z,97047.44
2023-03-05T19:39:35.926Z,97060.19
2023-03-05T19:42:02.622Z,97052.94
2023-03-05T19:44:29.889Z,97055.53
2023-03-05T19:46:56.530Z,97042.25
2023-03-05T19:49:23.281Z,97043.34
2023-03-05T19:51:50.338Z,97044.31
2023-03-05T19:54:17.785Z,97044.03
2023-03-05T19:56:45.252Z,97045.81
2023-03-05T19:59:12.006Z,97037.91
2023-03-05T20:01:38.648Z,97038.72
2023-03-05T20:04:05.411Z,97032.13
2023-03-05T20:06:32.256Z,97029.16
2023-03-05T20:08:59.143Z,97014.38
2023-03-05T20:11:25.832Z,97016.03
2023-03-05T20:13:52.762Z,97021.75
2023-03-05T20:16:21.367Z,97023.25
2023-03-05T20:18:52.873Z,97020.94
2023-03-05T20:21:24.209Z,97031.34
2023-03-05T20:23:51.681Z,97026.97
2023-03-05T20:26:18.466Z,97011.66
2023-03-05T20:28:45.224Z,97020.13
2023-03-05T20:31:12.311Z,97004.97
2023-03-05T20:33:39.028Z,96995.28
2023-03-05T20:36:06.158Z,96997.06
2023-03-05T20:38:32.830Z,96992.81
2023-03-05T20:41:04.084Z,97003.47
2023-03-05T20:43:33.496Z,96995.56
2023-03-05T20:46:00.654Z,96988.97
2023-03-05T20:48:28.990Z,96997.19
2023-03-05T20:50:55.918Z,96991.44
2023-03-05T20:53:22.529Z,96987.63
2023-03-05T20:55:49.172Z,96980.66
2023-03-05T20:58:16.125Z,96988.28
2023-03-05T21:00:42.889Z,96973.16
2023-03-05T21:03:09.600Z,96971.09
2023-03-05T21:05:36.377Z,96967.94
2023-03-05T21:08:04.341Z,96968.50
2023-03-05T21:10:31.513Z,96963.31
2023-03-05T21:13:00.787Z,96958.94
2023-03-05T21:15:28.760Z,96953.22
2023-03-05T21:17:55.428Z,96955.94
2023-03-05T21:20:24.466Z,96941.47
2023-03-05T21:22:51.284Z,96934.50
2023-03-05T21:25:22.027Z,96937.38
2023-03-05T21:27:49.625Z,96939.44
2023-03-05T21:30:18.032Z,96933.81
2023-03-05T21:32:44.871Z,96934.78
2023-03-05T21:35:16.534Z,96942.97
2023-03-05T21:37:43.264Z,96945.97
2023-03-05T21:40:12.280Z,96938.47
2023-03-05T21:42:39.196Z,96928.09
2023-03-05T21:45:07.243Z,96913.34
2023-03-05T21:47:34.163Z,96921.97
2023-03-05T21:50:00.862Z,96915.34
2023-03-05T21:52:27.489Z,96924.53
2023-03-05T21:54:54.463Z,96912.53
2023-03-05T21:57:21.271Z,96915.81
2023-03-05T21:59:47.904Z,96922.78
2023-03-05T22:02:16.724Z,96891.25
2023-03-05T22:04:43.646Z,96894.81
2023-03-05T22:07:10.257Z,96886.31
2023-03-05T22:09:36.902Z,96878.13
2023-03-05T22:12:04.715Z,96875.13
2023-03-05T22:14:31.568Z,96873.88
2023-03-05T22:17:02.162Z,96880.03
2023-03-05T22:19:29.861Z,96883.03
2023-03-05T22:21:57.621Z,96884.25
2023-03-05T22:24:25.534Z,96884.38
2023-03-05T22:26:52.452Z,96882.09
2023-03-05T22:29:19.125Z,96879.47
2023-03-05T22:31:45.805Z,96885.09
2023-03-05T22:34:12.425Z,96890.69
2023-03-05T22:36:39.061Z,96895.34
2023-03-05T22:39:05.672Z,96895.06
2023-03-05T22:41:32.307Z,96900.25
2023-03-05T22:43:58.960Z,96892.31
2023-03-05T22:46:26.178Z,96897.53
2023-03-05T22:48:52.902Z,96899.56
2023-03-05T22:51:20.072Z,96887.41
2023-03-05T22:53:46.739Z,96880.19
2023-03-05T22:56:14.967Z,96880.47
2023-03-05T22:58:41.571Z,96884.41
2023-03-05T23:01:19.054Z,96881.00
2023-03-05T23:03:45.868Z,96886.16
2023-03-05T23:06:12.640Z,96882.47
2023-03-05T23:08:39.200Z,96895.97
2023-03-05T23:11:10.146Z,96900.91
2023-03-05T23:13:36.747Z,96901.50
2023-03-05T23:16:03.531Z,96902.44
2023-03-05T23:18:30.178Z,96908.44
2023-03-05T23:20:56.817Z,96902.84
2023-03-05T23:23:23.434Z,96903.81
2023-03-05T23:25:50.694Z,96896.97
2023-03-05T23:28:18.206Z,96888.50
2023-03-05T23:30:45.040Z,96881.09
2023-03-05T23:33:18.539Z,96886.06
2023-03-05T23:35:58.291Z,96881.28
2023-03-05T23:38:25.632Z,96886.59
2023-03-05T23:40:54.024Z,96893.72
2023-03-05T23:43:21.400Z,96879.63
2023-03-05T23:45:48.702Z,96877.16
2023-03-05T23:48:16.114Z,96879.06
2023-03-05T23:50:45.153Z,96873.47
2023-03-05T23:53:17.151Z,96878.41
2023-03-05T23:55:44.096Z,96877.28
2023-03-05T23:58:10.920Z,96872.66
